Terminal Aerodrome Forecast
Issued by NWS New Orleans/Baton Rouge, LA

Home | Current Version | Previous Version | Text Only | Print | Product List | Glossary On
Versions: 1 2 3 4 5 6 7 8 9 10 11 12 13
000
FTUS44 KLIX 211700
TAFBTR
TAF
KBTR 211728Z 2118/2218 21006KT P6SM FEW025 SCT050
      TEMPO 2118/2119 BKN025
     FM220100 00000KT P6SM SCT140
     FM221500 30003KT P6SM SCT250=

USA.gov is the U.S. government's official web portal to all federal, state and local government web resources and services.